Time;durP1;ratioP1;P1;durP2;ratioP2;P2;SDS_P1;SDS_P2;PMS_P1;PMS_P2;Temp;Humidity;BMP_temperature;BMP_pressure;BME280_temperature;BME280_humidity;BME280_pressure;Samples;Min_cycle;Max_cycle;Signal;HPM_P1;HPM_P2
2022/05/22 00:01:12;;;;;;;37.58;17.58;;;;;;;18.10;77.79;92564.91;4993582;28;20072;-75
2022/05/22 00:03:38;;;;;;;32.38;17.67;;;;;;;18.08;77.24;92566.31;5011621;28;20507;-75
2022/05/22 00:06:04;;;;;;;33.20;18.80;;;;;;;18.04;77.58;92566.22;5011441;28;20113;-75
2022/05/22 00:08:29;;;;;;;44.33;18.92;;;;;;;18.03;77.90;92563.91;4994227;28;20381;-74
2022/05/22 00:10:56;;;;;;;40.67;19.58;;;;;;;18.00;78.21;92560.03;4990802;28;20093;-75
2022/05/22 00:13:24;;;;;;;38.70;18.70;;;;;;;17.95;78.79;92562.91;5010310;28;20030;-75
2022/05/22 00:18:34;;;;;;;32.22;18.13;;;;;;;17.86;78.46;92549.00;4983037;28;20133;-75
2022/05/22 00:21:00;;;;;;;38.20;18.73;;;;;;;17.85;78.87;92537.63;5011356;28;20648;-74
2022/05/22 00:23:25;;;;;;;32.53;18.98;;;;;;;17.81;79.25;92533.28;4993301;28;20115;-75
2022/05/22 00:25:56;;;;;;;38.03;17.73;;;;;;;17.76;78.84;92530.84;4990337;28;20046;-75
2022/05/22 00:28:21;;;;;;;33.53;17.13;;;;;;;17.75;78.61;92538.03;4974316;28;20445;-74
2022/05/22 00:30:47;;;;;;;36.90;18.77;;;;;;;17.71;78.97;92531.84;4993430;28;20033;-75
2022/05/22 00:33:12;;;;;;;40.58;17.73;;;;;;;17.67;78.67;92537.03;4993568;28;20050;-75
2022/05/22 00:35:40;;;;;;;38.97;17.40;;;;;;;17.67;78.44;92538.88;5011276;28;20041;-75
2022/05/22 00:38:06;;;;;;;35.00;17.85;;;;;;;17.63;78.27;92530.84;4990229;28;20042;-75
2022/05/22 00:40:31;;;;;;;36.80;17.60;;;;;;;17.60;78.62;92539.44;4990363;28;20038;-75
2022/05/22 00:42:57;;;;;;;46.42;18.60;;;;;;;17.54;78.71;92530.16;4990041;28;20049;-75
2022/05/22 00:45:23;;;;;;;36.58;17.00;;;;;;;17.51;79.01;92525.50;4991541;28;20034;-75
2022/05/22 00:47:54;;;;;;;36.38;17.05;;;;;;;17.45;78.53;92522.31;4990395;28;20475;-74
2022/05/22 00:50:22;;;;;;;28.13;15.57;;;;;;;17.41;78.53;92518.78;4990139;28;20085;-75
2022/05/22 00:52:57;;;;;;;40.28;17.40;;;;;;;17.40;78.08;92529.69;4991304;28;20130;-75
2022/05/22 00:55:29;;;;;;;37.88;18.55;;;;;;;17.37;78.69;92531.09;4990253;28;20404;-75
2022/05/22 00:58:10;;;;;;;37.88;16.15;;;;;;;17.35;78.62;92532.53;4990677;28;20556;-75
2022/05/22 01:00:36;;;;;;;31.80;16.98;;;;;;;17.31;78.96;92531.63;4990100;28;20234;-75
2022/05/22 01:03:31;;;;;;;37.08;18.48;;;;;;;17.32;78.76;92538.50;4980098;28;20145;-75
2022/05/22 01:06:10;;;;;;;35.85;18.02;;;;;;;17.27;79.32;92534.94;4971966;28;20078;-75
2022/05/22 01:08:39;;;;;;;31.88;17.50;;;;;;;17.26;79.10;92537.91;4970719;28;20084;-75
2022/05/22 01:11:18;;;;;;;33.22;17.80;;;;;;;17.26;78.83;92543.97;4970535;28;20034;-75
2022/05/22 01:13:50;;;;;;;29.83;15.38;;;;;;;17.25;78.33;92537.16;4978578;28;20042;-75
2022/05/22 01:16:16;;;;;;;36.10;16.60;;;;;;;17.24;77.94;92535.56;4990337;28;20030;-75
2022/05/22 01:18:46;;;;;;;35.65;15.20;;;;;;;17.24;77.55;92530.28;4990025;28;20285;-75
2022/05/22 01:21:25;;;;;;;30.50;15.25;;;;;;;17.24;77.25;92532.16;4986311;28;20034;-75
2022/05/22 01:23:52;;;;;;;30.20;15.27;;;;;;;17.24;77.13;92532.16;4972962;28;20133;-75
2022/05/22 01:26:28;;;;;;;31.27;16.38;;;;;;;17.22;76.90;92521.91;4970529;28;20109;-75
2022/05/22 01:29:11;;;;;;;36.67;16.40;;;;;;;17.20;77.52;92521.47;4970555;28;20035;-75
2022/05/22 01:31:37;;;;;;;31.40;16.33;;;;;;;17.14;77.99;92522.00;4986713;28;20051;-75
2022/05/22 01:34:04;;;;;;;28.05;16.15;;;;;;;17.08;78.48;92521.44;4981448;28;20096;-74
2022/05/22 01:36:30;;;;;;;29.55;16.45;;;;;;;17.02;78.80;92528.00;4993203;28;20117;-75
2022/05/22 01:38:57;;;;;;;34.22;16.45;;;;;;;16.95;78.80;92517.19;4977146;28;20046;-75
2022/05/22 01:41:28;;;;;;;34.45;15.77;;;;;;;16.95;78.40;92514.53;4993331;28;20412;-74
2022/05/22 01:43:54;;;;;;;33.25;15.73;;;;;;;16.93;78.16;92514.09;4993520;28;20490;-75
2022/05/22 01:46:20;;;;;;;28.40;15.40;;;;;;;16.92;78.10;92518.59;4993177;28;20038;-75
2022/05/22 01:48:56;;;;;;;30.23;15.73;;;;;;;16.91;78.11;92511.00;4993162;28;20104;-74
2022/05/22 01:51:26;;;;;;;29.70;15.35;;;;;;;16.88;78.59;92506.38;5009355;28;20049;-74
2022/05/22 01:53:53;;;;;;;33.63;16.17;;;;;;;16.89;78.83;92516.63;4992937;28;20500;-75
2022/05/22 01:56:19;;;;;;;35.05;16.17;;;;;;;16.87;79.08;92515.41;4978379;28;20035;-74
2022/05/22 01:58:45;;;;;;;31.63;16.10;;;;;;;16.87;78.92;92510.13;4973613;28;20042;-74
2022/05/22 02:01:11;;;;;;;34.45;16.75;;;;;;;16.85;78.51;92511.19;4973539;28;20058;-74
2022/05/22 02:03:38;;;;;;;28.27;16.48;;;;;;;16.85;79.26;92513.06;4973371;28;20035;-75
2022/05/22 02:06:05;;;;;;;29.58;16.17;;;;;;;16.83;79.14;92516.03;4947517;28;20053;-75
2022/05/22 02:08:32;;;;;;;30.92;15.60;;;;;;;16.81;78.97;92512.16;4973444;28;20039;-74
2022/05/22 02:11:04;;;;;;;27.80;16.17;;;;;;;16.81;78.82;92520.88;4973280;28;20023;-74
2022/05/22 02:13:38;;;;;;;34.13;16.02;;;;;;;16.79;78.79;92514.34;4973334;28;20039;-74
2022/05/22 02:16:07;;;;;;;33.03;16.70;;;;;;;16.79;78.72;92511.69;4976641;28;20026;-75
2022/05/22 02:18:32;;;;;;;29.98;16.35;;;;;;;16.75;79.61;92508.94;5009055;28;20041;-75
2022/05/22 02:20:59;;;;;;;32.15;16.13;;;;;;;16.74;79.59;92504.72;4992687;28;20022;-74
2022/05/22 02:23:24;;;;;;;34.00;16.67;;;;;;;16.72;79.91;92504.28;5008766;28;20045;-75
2022/05/22 02:25:53;;;;;;;32.70;16.15;;;;;;;16.69;80.16;92497.00;4987962;28;20045;-75
2022/05/22 02:28:21;;;;;;;32.80;16.60;;;;;;;16.70;79.93;92503.81;4992466;28;20484;-74
2022/05/22 02:30:50;;;;;;;32.13;16.02;;;;;;;16.69;80.44;92497.00;4992405;28;20133;-75
2022/05/22 02:33:16;;;;;;;32.33;16.40;;;;;;;16.68;79.65;92492.03;4992310;28;20053;-75
2022/05/22 02:35:52;;;;;;;28.58;16.42;;;;;;;16.70;79.78;92489.84;4992255;28;20026;-75
2022/05/22 02:38:25;;;;;;;27.95;15.32;;;;;;;16.69;79.11;92489.06;4992189;28;20042;-75
2022/05/22 02:40:52;;;;;;;28.30;15.57;;;;;;;16.65;78.91;92493.47;4992408;28;20420;-75
2022/05/22 02:43:18;;;;;;;34.70;14.73;;;;;;;16.64;79.05;92489.28;4992490;28;20266;-75
2022/05/22 02:45:49;;;;;;;27.00;14.50;;;;;;;16.64;79.00;92486.63;4975796;28;20040;-75
2022/05/22 02:48:17;;;;;;;34.45;16.75;;;;;;;16.64;78.91;92487.41;4991909;28;20042;-75
2022/05/22 02:51:14;;;;;;;27.75;14.55;;;;;;;16.66;78.20;92489.69;4989995;28;20045;-75
2022/05/22 02:53:39;;;;;;;30.25;14.57;;;;;;;16.66;77.47;92487.06;4992945;28;20100;-75
2022/05/22 02:56:26;;;;;;;24.83;14.10;;;;;;;16.66;77.71;92495.00;4978099;28;20041;-75
2022/05/22 02:58:58;;;;;;;31.23;15.10;;;;;;;16.63;77.96;92495.66;4992731;28;20117;-75
2022/05/22 03:01:25;;;;;;;26.35;14.50;;;;;;;16.61;78.14;92498.59;4992009;28;20038;-75
2022/05/22 03:03:51;;;;;;;29.13;15.23;;;;;;;16.62;78.32;92491.47;4975729;28;20496;-74
2022/05/22 03:09:00;;;;;;;30.25;14.30;;;;;;;16.60;78.46;92491.78;4991222;28;20137;-75
2022/05/22 03:11:26;;;;;;;27.48;13.50;;;;;;;16.60;77.71;92489.13;4975341;28;20121;-74
2022/05/22 03:13:52;;;;;;;24.85;13.32;;;;;;;16.61;76.98;92487.25;4991487;28;20054;-75
2022/05/22 03:16:18;;;;;;;29.33;13.55;;;;;;;16.61;76.75;92489.91;4959360;28;20045;-75
2022/05/22 03:19:00;;;;;;;32.75;14.27;;;;;;;16.58;76.50;92486.03;4983698;28;20043;-75
2022/05/22 03:21:27;;;;;;;27.60;14.32;;;;;;;16.59;76.24;92484.94;4986834;28;20129;-74
2022/05/22 03:23:58;;;;;;;29.43;13.30;;;;;;;16.61;76.29;92482.75;4975834;28;20026;-75
2022/05/22 03:26:23;;;;;;;24.70;13.23;;;;;;;16.61;76.25;92484.63;4990196;28;20061;-75
2022/05/22 03:28:49;;;;;;;26.83;12.85;;;;;;;16.60;75.89;92480.44;4986001;28;20050;-75
2022/05/22 03:31:16;;;;;;;24.92;13.25;;;;;;;16.55;76.03;92477.97;4991200;28;20042;-75
2022/05/22 03:33:42;;;;;;;30.83;14.68;;;;;;;16.52;75.93;92478.63;4974371;28;20101;-75
2022/05/22 03:36:08;;;;;;;25.17;12.82;;;;;;;16.51;76.00;92483.16;4971811;28;20069;-75
2022/05/22 03:38:34;;;;;;;35.58;12.75;;;;;;;16.50;75.87;92480.81;4973808;28;20126;-75
2022/05/22 03:41:03;;;;;;;28.20;12.80;;;;;;;16.49;75.82;92479.28;4991124;28;20069;-75
2022/05/22 03:43:35;;;;;;;25.70;12.55;;;;;;;16.51;75.55;92483.16;4990975;28;20078;-75
2022/05/22 03:46:01;;;;;;;31.45;12.80;;;;;;;16.51;75.05;92477.88;4991020;28;20062;-74
2022/05/22 03:48:28;;;;;;;25.92;12.48;;;;;;;16.51;75.10;92477.88;4991042;28;20088;-75
2022/05/22 03:50:53;;;;;;;24.90;13.20;;;;;;;16.49;75.51;92484.56;4974479;28;20038;-74
2022/05/22 03:53:23;;;;;;;28.98;12.82;;;;;;;16.50;75.32;92478.94;4975290;28;20045;-75
2022/05/22 03:55:49;;;;;;;26.90;13.30;;;;;;;16.51;75.38;92487.66;4990908;28;20072;-75
2022/05/22 03:58:19;;;;;;;21.45;11.75;;;;;;;16.52;75.12;92486.56;4990662;28;20038;-75
2022/05/22 04:00:48;;;;;;;27.35;12.32;;;;;;;16.54;75.02;92481.72;4974597;28;20049;-75
2022/05/22 04:03:14;;;;;;;28.23;12.57;;;;;;;16.57;74.78;92489.78;4991920;28;20043;-75
2022/05/22 04:05:40;;;;;;;25.00;12.93;;;;;;;16.60;74.38;92485.72;4990711;28;20500;-75
2022/05/22 04:08:07;;;;;;;28.00;12.30;;;;;;;16.63;74.37;92490.34;4974950;28;20504;-75
2022/05/22 04:10:43;;;;;;;32.05;12.73;;;;;;;16.64;74.03;92487.41;4990607;28;20052;-75
2022/05/22 04:13:09;;;;;;;21.42;12.35;;;;;;;16.67;73.84;92485.22;4990671;28;20050;-75
2022/05/22 04:15:35;;;;;;;25.77;11.73;;;;;;;16.71;73.41;92486.13;4990452;28;20054;-74
2022/05/22 04:18:02;;;;;;;23.67;11.93;;;;;;;16.74;73.57;92486.22;4990522;28;20042;-76
2022/05/22 04:20:31;;;;;;;25.38;11.75;;;;;;;16.77;73.49;92493.50;4971036;28;20038;-74
2022/05/22 04:26:00;;;;;;;28.02;11.80;;;;;;;16.81;72.82;92491.78;4990471;28;20571;-75
2022/05/22 04:28:27;;;;;;;27.88;12.27;;;;;;;16.87;72.82;92494.25;4990461;28;20022;-75
2022/05/22 04:31:03;;;;;;;24.48;11.60;;;;;;;16.88;72.64;92499.19;4990491;28;20149;-75
2022/05/22 04:33:31;;;;;;;23.02;11.35;;;;;;;16.92;72.41;92501.97;4989953;28;20042;-75
2022/05/22 04:35:59;;;;;;;20.63;10.77;;;;;;;16.95;71.85;92503.97;4990470;28;20429;-75
2022/05/22 04:38:26;;;;;;;21.20;10.75;;;;;;;16.96;71.57;92501.00;4974332;28;20058;-75
2022/05/22 04:41:00;;;;;;;26.85;11.30;;;;;;;16.99;71.57;92499.56;4990372;28;20492;-75
2022/05/22 04:43:28;;;;;;;21.15;11.18;;;;;;;17.05;71.50;92500.94;4990146;28;20038;-75
2022/05/22 04:45:54;;;;;;;20.10;11.30;;;;;;;17.13;71.08;92508.00;4990406;28;20448;-74
2022/05/22 04:48:25;;;;;;;19.80;10.65;;;;;;;17.18;70.99;92505.16;4990922;28;20432;-75
2022/05/22 04:50:56;;;;;;;24.20;10.75;;;;;;;17.26;70.86;92504.28;4974835;28;20042;-74
2022/05/22 04:53:28;;;;;;;29.97;10.77;;;;;;;17.35;71.13;92514.03;4991429;28;20042;-75
2022/05/22 04:56:19;;;;;;;23.83;10.38;;;;;;;17.40;71.58;92509.28;4990151;28;20030;-75
2022/05/22 04:58:50;;;;;;;20.48;11.25;;;;;;;17.47;71.83;92506.88;4990257;28;20125;-75
2022/05/22 05:01:17;;;;;;;22.80;11.13;;;;;;;17.52;71.81;92508.56;4990229;28;20038;-75
2022/05/22 05:03:59;;;;;;;24.25;11.23;;;;;;;17.61;71.83;92516.41;4985896;28;20078;-75
2022/05/22 05:06:30;;;;;;;18.63;10.73;;;;;;;17.67;72.15;92517.72;4954174;28;20149;-75
2022/05/22 05:08:56;;;;;;;25.48;11.52;;;;;;;17.72;71.99;92517.53;4989987;28;20039;-75
2022/05/22 05:11:26;;;;;;;26.52;11.48;;;;;;;17.77;71.88;92519.19;4993848;28;20030;-74
2022/05/22 05:13:57;;;;;;;29.00;12.10;;;;;;;17.79;71.66;92509.03;4987552;28;20042;-75
2022/05/22 05:16:23;;;;;;;26.83;11.65;;;;;;;17.86;71.85;92512.69;4981434;28;20048;-73
2022/05/22 05:18:56;;;;;;;28.30;11.57;;;;;;;17.90;72.04;92512.81;4990159;28;20061;-75
2022/05/22 05:21:22;;;;;;;22.17;11.10;;;;;;;17.96;71.84;92506.19;4992090;28;20129;-75
2022/05/22 05:23:51;;;;;;;26.35;10.68;;;;;;;18.00;71.83;92509.72;4973214;28;20530;-75
2022/05/22 05:26:20;;;;;;;20.83;10.93;;;;;;;18.05;72.36;92520.09;4976148;28;20049;-74
2022/05/22 05:28:47;;;;;;;21.52;12.85;;;;;;;18.10;72.57;92511.94;4963294;28;20408;-77
2022/05/22 05:31:23;;;;;;;26.13;12.32;;;;;;;18.15;72.90;92518.88;4979692;28;20039;-77
2022/05/22 05:33:48;;;;;;;25.80;12.73;;;;;;;18.18;73.44;92512.16;4983984;28;20038;-76
2022/05/22 05:36:20;;;;;;;23.02;12.00;;;;;;;18.25;73.46;92517.66;4967644;28;20043;-76
2022/05/22 05:39:08;;;;;;;22.65;11.55;;;;;;;18.31;73.51;92513.69;4980335;28;20530;-76
2022/05/22 05:42:09;;;;;;;;;;;;;;;18.43;72.67;92513.66;4983648;28;20100;-77
2022/05/22 05:44:36;;;;;;;26.88;11.00;;;;;;;18.54;72.30;92518.50;4974425;28;20384;-76
2022/05/22 05:47:20;;;;;;;37.75;12.50;;;;;;;18.66;71.88;92513.19;4977309;28;20030;-77
2022/05/22 05:50:05;;;;;;;25.17;11.90;;;;;;;18.90;71.12;92513.13;4996654;28;20420;-76
2022/05/22 05:52:57;;;;;;;28.20;13.18;;;;;;;19.24;70.27;92508.34;4979285;28;20042;-77
2022/05/22 05:55:41;;;;;;;23.05;11.95;;;;;;;19.75;68.39;92508.56;4995039;28;20096;-76
2022/05/22 05:58:26;;;;;;;25.08;12.35;;;;;;;20.32;66.08;92508.34;4985396;28;20181;-77
2022/05/22 06:01:16;;;;;;;21.30;12.40;;;;;;;20.89;63.82;92512.22;4992656;28;20404;-75
2022/05/22 06:03:44;;;;;;;27.52;12.23;;;;;;;21.37;62.46;92512.78;4976632;28;20030;-77
2022/05/22 06:06:11;;;;;;;30.20;13.80;;;;;;;21.85;61.79;92506.41;4992180;28;20030;-77
2022/05/22 06:08:38;;;;;;;25.88;12.50;;;;;;;22.27;60.43;92506.34;4979362;28;20031;-74
2022/05/22 06:11:23;;;;;;;28.27;12.75;;;;;;;22.63;56.75;92504.19;4983864;28;20046;-77
2022/05/22 06:13:48;;;;;;;24.50;11.90;;;;;;;22.70;55.30;92500.81;4991802;28;20496;-73
2022/05/22 06:16:14;;;;;;;26.10;12.55;;;;;;;22.77;56.56;92500.94;4980710;28;20034;-76
2022/05/22 06:18:50;;;;;;;30.02;13.40;;;;;;;23.05;58.26;92501.28;4990729;28;20046;-76
2022/05/22 06:21:19;;;;;;;28.83;13.95;;;;;;;23.42;57.84;92500.56;4989195;28;20039;-76
2022/05/22 06:23:45;;;;;;;33.40;13.27;;;;;;;23.70;56.54;92492.06;4988067;28;20173;-76
2022/05/22 06:26:13;;;;;;;32.13;15.70;;;;;;;23.60;57.09;92494.66;4988830;28;20038;-76
2022/05/22 06:29:14;;;;;;;34.53;14.55;;;;;;;23.40;57.73;92494.84;4981071;28;20111;-76
2022/05/22 06:32:00;;;;;;;32.00;15.60;;;;;;;23.34;59.60;92504.28;4952939;28;20097;-77
2022/05/22 06:34:34;;;;;;;34.50;16.02;;;;;;;23.23;58.51;92512.19;4986465;28;20104;-76
2022/05/22 06:37:02;;;;;;;34.20;14.48;;;;;;;23.33;57.76;92510.00;4984698;28;20038;-77
2022/05/22 06:39:50;;;;;;;30.88;15.38;;;;;;;23.27;59.51;92512.22;4995110;28;20026;-76
2022/05/22 06:42:55;;;;;;;31.27;15.02;;;;;;;22.78;60.62;92518.47;4977007;28;20046;-76
2022/05/22 06:45:39;;;;;;;27.48;15.23;;;;;;;22.82;59.50;92519.28;4973001;28;20041;-77
2022/05/22 06:48:23;;;;;;;29.27;15.63;;;;;;;22.63;60.35;92517.53;4993974;28;20045;-76
2022/05/22 06:51:18;;;;;;;38.45;15.65;;;;;;;22.57;60.89;92519.72;4990445;28;20046;-77
2022/05/22 06:54:03;;;;;;;31.15;14.32;;;;;;;22.73;60.49;92518.78;4978534;28;20053;-76
2022/05/22 06:56:47;;;;;;;34.53;16.40;;;;;;;22.44;60.28;92515.72;5003695;28;20096;-76
2022/05/22 06:59:35;;;;;;;28.63;14.55;;;;;;;22.49;58.59;92518.06;4997541;28;20491;-76
2022/05/22 07:02:20;;;;;;;25.63;14.25;;;;;;;22.48;57.16;92516.53;4996401;28;20463;-76
2022/05/22 07:05:06;;;;;;;34.25;14.13;;;;;;;22.39;57.95;92526.69;5005839;28;20045;-76
2022/05/22 07:07:54;;;;;;;28.67;14.32;;;;;;;22.33;57.71;92528.88;4965006;28;20523;-77
2022/05/22 07:13:44;;;;;;;23.27;12.98;;;;;;;22.05;56.58;92521.22;5009752;28;20037;-78
2022/05/22 07:16:42;;;;;;;28.73;14.50;;;;;;;21.88;57.74;92516.34;4977795;28;20484;-77
2022/05/22 07:19:16;;;;;;;35.63;14.93;;;;;;;21.73;59.19;92520.66;4989447;28;20065;-76
2022/05/22 07:21:58;;;;;;;33.03;16.13;;;;;;;21.61;61.48;92513.59;4974015;28;20031;-78
2022/05/22 07:24:44;;;;;;;33.17;16.40;;;;;;;21.61;61.00;92517.03;5004938;28;20484;-76
2022/05/22 07:27:21;;;;;;;27.20;15.02;;;;;;;21.59;62.49;92518.50;4995444;28;20033;-78
2022/05/22 07:30:13;;;;;;;38.30;17.45;;;;;;;21.36;62.18;92519.22;4995796;28;20053;-78
2022/05/22 07:33:04;;;;;;;34.42;16.23;;;;;;;21.37;64.73;92520.78;4979165;28;20069;-77
2022/05/22 07:35:58;;;;;;;29.73;15.93;;;;;;;21.37;65.21;92515.44;4961670;28;20271;-78
2022/05/22 07:38:35;;;;;;;;;;;;;;;21.37;66.23;92520.00;5006825;28;20064;-77
2022/05/22 07:41:27;;;;;;;26.00;15.73;;;;;;;21.28;66.18;92514.91;4984623;28;19913;-78
2022/05/22 07:44:10;;;;;;;27.80;15.15;;;;;;;21.39;66.69;92513.22;4988972;28;20431;-78
2022/05/22 07:46:41;;;;;;;27.35;15.27;;;;;;;21.57;64.83;92515.44;5007256;28;20050;-78
2022/05/22 07:52:29;;;;;;;32.60;15.15;;;;;;;22.26;63.11;92517.34;4993909;28;20061;-79
2022/05/22 07:55:14;;;;;;;26.80;15.15;;;;;;;22.40;64.67;92520.22;5006541;28;20100;-79
2022/05/22 07:58:17;;;;;;;30.55;15.57;;;;;;;22.21;64.02;92515.75;4971485;28;20122;-78
2022/05/22 08:01:21;;;;;;;29.15;16.00;;;;;;;21.70;65.63;92519.47;4999357;28;20038;-78
2022/05/22 08:04:01;;;;;;;33.92;17.27;;;;;;;21.64;65.65;92523.56;4988807;28;20045;-77
2022/05/22 08:06:46;;;;;;;34.08;16.10;;;;;;;21.67;64.80;92528.19;4996356;28;20188;-77
2022/05/22 08:09:21;;;;;;;32.38;17.75;;;;;;;21.68;65.62;92524.38;5000592;28;20427;-78
2022/05/22 08:11:49;;;;;;;37.22;18.05;;;;;;;21.73;66.99;92529.44;4974501;28;20038;-78
2022/05/22 08:14:15;;;;;;;34.33;17.92;;;;;;;21.74;66.20;92522.22;4989030;28;20124;-79
2022/05/22 08:16:43;;;;;;;33.20;17.35;;;;;;;21.44;65.72;92522.06;5007752;28;20037;-78
2022/05/22 08:19:18;;;;;;;38.97;18.98;;;;;;;21.71;66.70;92534.34;4986923;28;20034;-79
2022/05/22 08:22:02;;;;;;;31.92;18.15;;;;;;;21.79;66.81;92524.56;5003140;28;20443;-79
2022/05/22 08:24:48;;;;;;;35.00;17.17;;;;;;;21.83;64.16;92520.84;5002673;28;21918;-78
2022/05/22 08:27:13;;;;;;;27.55;17.58;;;;;;;21.70;66.39;92516.03;4985736;28;20034;-80
2022/05/22 08:29:39;;;;;;;44.85;19.45;;;;;;;21.50;67.44;92517.97;4987751;28;20057;-78
2022/05/22 08:32:05;;;;;;;35.40;18.63;;;;;;;21.23;67.10;92519.72;4973339;28;20041;-79
2022/05/22 08:34:31;;;;;;;37.30;18.75;;;;;;;21.01;68.88;92524.66;5001174;28;20522;-79
2022/05/22 08:36:57;;;;;;;31.55;18.30;;;;;;;21.03;68.56;92514.44;4983219;28;20095;-80
2022/05/22 08:39:22;;;;;;;35.50;19.67;;;;;;;21.21;67.94;92507.56;5011458;28;20057;-79
2022/05/22 08:41:50;;;;;;;36.28;18.98;;;;;;;21.57;67.30;92504.78;4987164;28;20042;-79
2022/05/22 08:44:27;;;;;;;36.67;19.65;;;;;;;22.00;65.80;92500.94;4993196;28;20038;-79
2022/05/22 08:47:19;;;;;;;36.17;18.30;;;;;;;22.40;65.57;92490.88;5005932;28;20041;-79
2022/05/22 08:50:04;;;;;;;40.58;18.73;;;;;;;22.54;62.72;92479.66;4987526;28;20073;-77
2022/05/22 08:52:48;;;;;;;30.20;17.17;;;;;;;22.85;61.07;92473.19;5008691;28;20025;-80
2022/05/22 08:55:25;;;;;;;33.75;19.23;;;;;;;22.62;61.50;92479.38;4999182;28;20037;-79
2022/05/22 09:01:12;;;;;;;34.83;18.40;;;;;;;22.44;62.47;92462.38;4996143;28;20030;-79
2022/05/22 09:04:00;;;;;;;34.95;18.42;;;;;;;22.10;63.82;92470.25;4994130;28;20030;-79
2022/05/22 09:06:44;;;;;;;40.17;19.25;;;;;;;22.34;64.17;92463.78;4990158;28;20495;-79
2022/05/22 09:09:10;;;;;;;34.95;18.73;;;;;;;22.61;63.14;92463.75;4996202;28;20149;-78
2022/05/22 09:11:59;;;;;;;34.83;19.00;;;;;;;22.68;62.24;92460.41;4999186;28;20584;-77
2022/05/22 09:14:44;;;;;;;42.13;19.85;;;;;;;22.72;62.62;92462.00;5011804;28;20045;-79
2022/05/22 09:17:24;;;;;;;38.22;18.77;;;;;;;22.52;62.89;92457.94;5009552;28;20076;-78
2022/05/22 09:19:52;;;;;;;35.78;19.92;;;;;;;22.59;64.10;92453.44;5008298;28;20018;-78
2022/05/22 09:22:24;;;;;;;43.08;18.70;;;;;;;22.90;63.29;92456.09;5000735;28;20132;-78
2022/05/22 09:24:57;;;;;;;27.48;15.32;;;;;;;23.13;62.21;92456.78;5013174;28;20121;-77
2022/05/22 09:28:01;;;;;;;35.22;19.80;;;;;;;22.99;62.89;92460.06;5006772;28;20030;-78
2022/05/22 09:30:26;;;;;;;42.65;19.85;;;;;;;23.10;63.64;92459.41;5002378;28;20085;-78
2022/05/22 09:33:05;;;;;;;49.10;22.23;;;;;;;23.17;63.02;92454.13;4996027;28;20092;-79
2022/05/22 09:35:43;;;;;;;41.92;20.33;;;;;;;23.03;62.88;92455.53;5000860;28;20084;-78
2022/05/22 09:38:32;;;;;;;40.83;21.40;;;;;;;23.09;63.11;92455.97;4989673;28;20052;-78
2022/05/22 09:41:33;;;;;;;39.55;21.98;;;;;;;23.32;62.15;92441.72;4980215;28;20030;-77
2022/05/22 09:44:08;;;;;;;44.42;21.98;;;;;;;23.20;63.15;92459.53;4948522;28;20050;-78
2022/05/22 09:46:51;;;;;;;42.15;22.15;;;;;;;23.42;63.76;92455.16;4988172;28;20121;-79
2022/05/22 09:49:49;;;;;;;45.25;22.08;;;;;;;23.69;61.09;92458.47;4988152;28;20120;-77
2022/05/22 09:52:25;;;;;;;49.83;26.23;;;;;;;23.66;61.84;92453.88;5006892;28;20046;-78
2022/05/22 09:54:53;;;;;;;50.67;24.30;;;;;;;23.87;60.72;92452.53;4989548;28;20519;-78
2022/05/22 09:57:56;;;;;;;51.90;26.77;;;;;;;24.03;60.14;92453.03;5014886;28;20094;-78
2022/05/22 10:00:38;;;;;;;38.80;23.33;;;;;;;24.16;61.03;92447.38;4997525;28;20026;-76
2022/05/22 10:03:08;;;;;;;47.67;26.95;;;;;;;24.36;60.48;92453.25;5012610;28;20026;-78
2022/05/22 10:05:52;;;;;;;47.88;26.55;;;;;;;24.46;58.92;92452.56;5011996;28;20034;-81
2022/05/22 10:08:39;;;;;;;60.90;27.63;;;;;;;24.28;59.62;92453.22;4996695;28;20317;-78
2022/05/22 10:11:15;;;;;;;66.13;31.02;;;;;;;23.89;61.19;92451.03;5009981;28;21498;-78
2022/05/22 10:14:16;;;;;;;63.25;30.13;;;;;;;24.11;63.01;92445.84;4972636;28;20026;-77
2022/05/22 10:16:42;;;;;;;63.08;32.10;;;;;;;23.55;64.27;92450.31;4995438;28;20037;-79
2022/05/22 10:19:38;;;;;;;59.83;31.58;;;;;;;23.33;65.30;92445.91;5010215;28;20124;-77
2022/05/22 10:22:15;;;;;;;59.15;28.58;;;;;;;23.43;66.29;92446.00;5008983;28;20033;-77
2022/05/22 10:24:50;;;;;;;59.80;29.83;;;;;;;23.37;63.99;92450.16;5010568;28;20610;-80
2022/05/22 10:27:44;;;;;;;70.78;30.48;;;;;;;23.44;65.92;92441.44;5006285;28;20122;-80
2022/05/22 10:30:18;;;;;;;65.93;33.13;;;;;;;23.59;65.04;92445.00;5006829;28;20033;-79
2022/05/22 10:32:53;;;;;;;55.50;29.98;;;;;;;23.52;63.50;92451.06;5012620;28;20530;-80
2022/05/22 10:35:39;;;;;;;59.22;32.28;;;;;;;23.62;64.28;92452.28;5016853;28;20455;-82
2022/05/22 10:38:14;;;;;;;68.57;31.38;;;;;;;23.59;63.91;92453.78;4994310;28;20078;-80
2022/05/22 10:43:48;;;;;;;55.28;30.50;;;;;;;23.87;63.99;92442.63;4993056;28;20096;-80
2022/05/22 10:46:14;;;;;;;63.88;30.55;;;;;;;24.01;63.91;92435.84;4984068;28;20080;-81
2022/05/22 10:48:53;;;;;;;52.40;24.75;;;;;;;23.69;63.70;92441.69;5010576;28;20036;-83
2022/05/22 10:51:28;;;;;;;64.18;28.83;;;;;;;23.83;63.99;92433.78;5010738;28;20384;-79
2022/05/22 10:53:59;;;;;;;63.70;31.38;;;;;;;23.92;64.28;92432.72;5010485;28;20057;-79
2022/05/22 10:56:28;;;;;;;62.60;30.83;;;;;;;23.97;62.75;92437.72;4995291;28;20668;-79
2022/05/22 10:59:00;;;;;;;66.97;31.92;;;;;;;24.37;63.00;92441.44;5007080;28;20412;-79
2022/05/22 11:01:38;;;;;;;59.45;33.10;;;;;;;24.52;61.18;92446.50;5011028;28;20141;-79
2022/05/22 11:04:08;;;;;;;62.92;32.20;;;;;;;24.58;61.05;92440.81;4996533;28;20058;-78
2022/05/22 11:06:36;;;;;;;50.83;27.25;;;;;;;24.35;61.35;92435.69;5005316;28;20030;-80
2022/05/22 11:09:05;;;;;;;77.95;35.45;;;;;;;24.33;61.46;92438.72;5012023;28;20156;-79
2022/05/22 11:11:33;;;;;;;64.53;32.67;;;;;;;24.53;60.85;92436.56;5008521;28;20034;-80
2022/05/22 11:14:32;;;;;;;65.82;29.27;;;;;;;24.64;60.97;92434.72;5010239;28;20029;-79
2022/05/22 11:17:15;;;;;;;64.53;31.58;;;;;;;24.46;61.34;92431.16;5006021;28;20061;-78
2022/05/22 11:19:50;;;;;;;69.82;32.53;;;;;;;24.33;62.79;92424.59;5003004;28;20054;-77
2022/05/22 11:22:38;;;;;;;77.22;34.30;;;;;;;24.52;62.42;92419.75;4983853;28;20419;-78
2022/05/22 11:25:42;;;;;;;61.53;30.63;;;;;;;24.75;60.61;92417.94;5004568;28;20029;-77
2022/05/22 11:28:14;;;;;;;48.85;28.88;;;;;;;24.94;62.76;92409.59;5005985;28;20511;-78
2022/05/22 11:31:15;;;;;;;67.05;32.33;;;;;;;25.00;59.13;92407.31;5004534;28;20022;-77
2022/05/22 11:34:29;;;;;;;60.83;28.77;;;;;;;24.52;61.13;92401.03;4985656;28;20496;-77
2022/05/22 11:37:23;;;;;;;63.45;27.92;;;;;;;25.12;61.85;92390.91;4943774;28;20061;-79
2022/05/22 11:40:06;;;;;;;59.85;30.20;;;;;;;24.83;61.39;92398.06;4987299;28;20496;-77
2022/05/22 11:42:40;;;;;;;67.32;30.88;;;;;;;24.51;60.59;92391.44;4972710;28;20037;-78
2022/05/22 11:45:27;;;;;;;64.05;29.45;;;;;;;24.60;62.10;92391.13;4962698;28;20128;-77
2022/05/22 11:48:16;;;;;;;66.20;28.50;;;;;;;24.75;62.39;92386.59;5000369;28;20026;-78
2022/05/22 11:51:00;;;;;;;61.00;30.65;;;;;;;24.76;61.25;92382.00;4997465;28;20069;-80
2022/05/22 11:53:48;;;;;;;61.33;32.00;;;;;;;24.72;61.45;92380.09;4965642;28;20121;-78
2022/05/22 11:56:26;;;;;;;64.15;29.48;;;;;;;24.58;61.90;92380.00;5004338;28;20034;-78
2022/05/22 11:59:15;;;;;;;61.50;29.30;;;;;;;24.29;62.69;92376.41;4992981;28;20046;-78
2022/05/22 12:01:49;;;;;;;63.25;29.77;;;;;;;24.01;63.58;92374.34;5000954;28;20034;-76
2022/05/22 12:04:20;;;;;;;66.68;30.73;;;;;;;23.80;64.75;92377.63;4981827;28;20084;-78
2022/05/22 12:07:03;;;;;;;73.45;28.92;;;;;;;23.97;64.88;92373.56;4996337;28;20385;-76
2022/05/22 12:09:44;;;;;;;68.50;29.67;;;;;;;24.19;64.53;92377.13;5002855;28;20088;-78
2022/05/22 12:12:27;;;;;;;57.50;29.48;;;;;;;24.33;62.40;92377.19;5000825;28;20036;-77
2022/05/22 12:14:56;;;;;;;56.90;28.38;;;;;;;24.31;62.62;92377.56;5009580;28;20092;-77